Time;durP1;ratioP1;P1;durP2;ratioP2;P2;SDS_P1;SDS_P2;PMS_P1;PMS_P2;Temp;Humidity;BMP_temperature;BMP_pressure;BME280_temperature;BME280_humidity;BME280_pressure;Samples;Min_cycle;Max_cycle;Signal;HPM_P1;HPM_P2
2022/09/12 00:01:04;;;;;;;44.15;21.27;;;13.90;99.90;;;;;;4955589;29;20055;-74
2022/09/12 00:03:30;;;;;;;44.97;21.60;;;13.90;99.90;;;;;;4955245;29;20531;-74
2022/09/12 00:05:55;;;;;;;40.20;20.90;;;13.90;99.90;;;;;;4955075;29;20151;-73
2022/09/12 00:08:21;;;;;;;43.60;21.60;;;13.90;99.90;;;;;;4937844;29;20055;-74
2022/09/12 00:10:47;;;;;;;47.05;22.95;;;13.80;99.90;;;;;;4938228;29;20047;-75
2022/09/12 00:13:13;;;;;;;43.58;20.50;;;13.80;99.90;;;;;;4954896;29;20058;-75
2022/09/12 00:15:40;;;;;;;44.30;21.70;;;13.80;99.90;;;;;;4955634;29;20471;-74
2022/09/12 00:18:07;;;;;;;44.92;21.30;;;13.80;99.90;;;;;;4937601;29;20055;-75
2022/09/12 00:20:33;;;;;;;47.80;22.33;;;13.80;99.90;;;;;;4922232;29;20490;-75
2022/09/12 00:22:59;;;;;;;52.90;24.20;;;13.70;99.90;;;;;;4958211;29;20048;-75
2022/09/12 00:25:25;;;;;;;52.20;23.17;;;13.70;99.90;;;;;;4954838;28;20503;-75
2022/09/12 00:27:51;;;;;;;45.28;22.42;;;13.70;99.90;;;;;;4937537;29;20075;-75
2022/09/12 00:30:17;;;;;;;48.28;22.25;;;13.70;99.90;;;;;;4938023;29;20053;-76
2022/09/12 00:32:43;;;;;;;46.25;21.55;;;13.70;99.90;;;;;;4955165;29;20130;-75
2022/09/12 00:35:09;;;;;;;45.45;21.10;;;13.60;99.90;;;;;;4954763;29;20070;-75
2022/09/12 00:37:34;;;;;;;51.15;23.38;;;13.60;99.90;;;;;;4955366;29;20046;-75
2022/09/12 00:40:01;;;;;;;53.60;24.13;;;13.50;99.90;;;;;;4938050;29;20373;-75
2022/09/12 00:42:26;;;;;;;51.40;23.53;;;13.50;99.90;;;;;;4955359;29;20412;-76
2022/09/12 00:44:52;;;;;;;51.00;24.02;;;13.50;99.90;;;;;;4954760;29;20055;-76
2022/09/12 00:47:27;;;;;;;60.53;25.67;;;13.50;99.90;;;;;;4938340;29;20082;-76
2022/09/12 00:50:04;;;;;;;59.25;26.73;;;13.50;99.90;;;;;;4937975;29;20217;-77
2022/09/12 00:52:41;;;;;;;58.03;25.67;;;13.50;99.90;;;;;;4955172;29;20117;-75
2022/09/12 00:55:15;;;;;;;49.55;22.42;;;13.50;99.90;;;;;;4938407;29;20549;-75
2022/09/12 00:57:53;;;;;;;51.17;22.23;;;13.50;99.90;;;;;;4937586;29;20051;-75
2022/09/12 01:00:22;;;;;;;55.25;23.25;;;13.40;99.90;;;;;;4954685;29;20075;-75
2022/09/12 01:02:51;;;;;;;53.85;25.05;;;13.40;99.90;;;;;;4954680;29;20054;-75
2022/09/12 01:05:17;;;;;;;52.97;25.17;;;13.40;99.90;;;;;;4954616;29;20066;-75
2022/09/12 01:07:47;;;;;;;58.00;25.85;;;13.40;99.90;;;;;;4954703;29;20047;-75
2022/09/12 01:10:13;;;;;;;64.07;26.25;;;13.40;99.90;;;;;;4954788;29;20047;-75
2022/09/12 01:12:41;;;;;;;75.72;29.08;;;13.40;99.90;;;;;;4954099;29;20063;-76
2022/09/12 01:15:08;;;;;;;86.45;31.42;;;13.50;99.90;;;;;;4937656;29;20059;-75
2022/09/12 01:18:02;;;;;;;80.75;32.67;;;13.50;99.90;;;;;;4937951;29;20087;-76
2022/09/12 01:20:37;;;;;;;76.95;32.88;;;13.40;99.90;;;;;;4936657;29;20453;-76
2022/09/12 01:23:23;;;;;;;79.00;32.60;;;13.50;99.90;;;;;;4937849;29;20055;-76
2022/09/12 01:26:09;;;;;;;76.68;31.95;;;13.50;99.90;;;;;;4928655;29;20480;-76
2022/09/12 01:29:13;;;;;;;80.05;32.63;;;13.50;99.90;;;;;;4943107;29;20047;-74
2022/09/12 01:32:02;;;;;;;81.50;32.45;;;13.50;99.90;;;;;;4957269;29;20066;-76
2022/09/12 01:34:46;;;;;;;78.63;33.08;;;13.50;99.90;;;;;;4939132;29;20376;-76
2022/09/12 01:37:15;;;;;;;84.40;33.50;;;13.40;99.90;;;;;;4954432;29;20051;-75
2022/09/12 01:40:02;;;;;;;85.22;33.25;;;13.40;99.90;;;;;;4925593;29;20166;-75
2022/09/12 01:42:55;;;;;;;82.88;32.75;;;13.40;99.90;;;;;;4958486;29;20054;-75
2022/09/12 01:45:46;;;;;;;85.00;32.92;;;13.40;99.90;;;;;;4958300;29;20046;-76
2022/09/12 01:48:26;;;;;;;87.28;32.10;;;13.40;99.90;;;;;;4957614;29;20102;-75
2022/09/12 01:51:09;;;;;;;88.05;33.83;;;13.40;99.90;;;;;;4957956;28;20522;-75
2022/09/12 01:53:41;;;;;;;88.97;33.30;;;13.40;99.90;;;;;;4957632;29;20130;-76
2022/09/12 01:56:24;;;;;;;82.80;33.58;;;13.40;99.90;;;;;;4957915;28;20051;-76
2022/09/12 01:58:50;;;;;;;91.43;34.85;;;13.30;99.90;;;;;;4957485;28;20076;-76
2022/09/12 02:01:21;;;;;;;89.22;33.83;;;13.30;99.90;;;;;;4957622;29;20051;-76
2022/09/12 02:03:53;;;;;;;87.78;33.47;;;13.30;99.90;;;;;;4957233;29;20047;-76
2022/09/12 02:06:51;;;;;;;87.72;34.05;;;13.20;99.90;;;;;;4940873;29;20138;-77
2022/09/12 02:09:33;;;;;;;88.68;32.92;;;13.20;99.90;;;;;;4932817;29;20353;-76
2022/09/12 02:12:00;;;;;;;92.22;34.08;;;13.20;99.90;;;;;;4957236;29;20061;-75
2022/09/12 02:14:41;;;;;;;90.18;34.45;;;13.20;99.90;;;;;;4939379;29;20086;-75
2022/09/12 02:17:13;;;;;;;90.82;33.42;;;13.20;99.90;;;;;;4957707;29;20050;-76
2022/09/12 02:19:53;;;;;;;94.80;35.17;;;13.20;99.90;;;;;;4939444;29;20117;-75
2022/09/12 02:22:23;;;;;;;92.90;35.22;;;13.20;99.90;;;;;;4957631;29;20043;-76
2022/09/12 02:24:53;;;;;;;101.63;36.00;;;13.20;99.90;;;;;;4940806;29;20357;-75
2022/09/12 02:27:44;;;;;;;96.78;35.45;;;13.30;99.90;;;;;;4939777;29;20188;-75
2022/09/12 02:30:13;;;;;;;96.78;36.72;;;13.20;99.90;;;;;;4957146;29;20073;-76
2022/09/12 02:33:00;;;;;;;93.65;34.63;;;13.20;99.90;;;;;;4940041;29;20054;-76
2022/09/12 02:35:42;;;;;;;101.47;35.63;;;13.30;99.90;;;;;;4939839;29;20122;-76
2022/09/12 02:38:31;;;;;;;92.97;35.13;;;13.30;99.90;;;;;;4957156;29;20358;-76
2022/09/12 02:40:57;;;;;;;103.53;35.30;;;13.20;99.90;;;;;;4956792;29;20054;-76
2022/09/12 02:43:23;;;;;;;97.85;35.47;;;13.20;99.90;;;;;;4939493;29;20086;-78
2022/09/12 02:45:49;;;;;;;105.57;36.20;;;13.20;99.90;;;;;;4924543;29;20055;-76
2022/09/12 02:48:28;;;;;;;96.35;35.50;;;13.20;99.90;;;;;;4960091;29;20491;-77
2022/09/12 02:50:55;;;;;;;100.93;36.03;;;13.20;99.90;;;;;;4965065;28;20048;-75
2022/09/12 02:53:22;;;;;;;109.93;36.60;;;13.20;99.90;;;;;;4966533;28;20114;-76
2022/09/12 02:55:48;;;;;;;106.22;36.78;;;13.10;99.90;;;;;;4957800;29;20042;-76
2022/09/12 02:58:19;;;;;;;108.40;37.50;;;13.20;99.90;;;;;;4956826;29;20105;-75
2022/09/12 03:01:06;;;;;;;107.40;36.75;;;13.10;99.90;;;;;;4957196;28;20050;-76
2022/09/12 03:03:38;;;;;;;105.00;37.08;;;13.10;99.90;;;;;;4956528;29;20058;-75
2022/09/12 03:06:23;;;;;;;109.50;37.40;;;13.10;99.90;;;;;;4956707;29;20051;-75
2022/09/12 03:09:09;;;;;;;104.30;36.17;;;13.00;99.90;;;;;;4956968;29;20047;-76
2022/09/12 03:12:01;;;;;;;111.55;36.53;;;13.00;99.90;;;;;;4956509;29;20488;-76
2022/09/12 03:15:00;;;;;;;114.97;36.97;;;13.00;99.90;;;;;;4938545;29;20429;-76
2022/09/12 03:17:39;;;;;;;108.43;35.88;;;13.00;99.90;;;;;;4923458;29;20065;-77
2022/09/12 03:20:15;;;;;;;117.22;37.03;;;13.00;99.90;;;;;;4956249;29;20047;-77
2022/09/12 03:22:57;;;;;;;117.13;37.88;;;13.00;99.90;;;;;;4955982;29;20504;-76
2022/09/12 03:25:39;;;;;;;113.75;36.03;;;13.00;99.90;;;;;;4923138;29;20051;-77
2022/09/12 03:28:11;;;;;;;119.32;37.80;;;12.90;99.90;;;;;;4955983;29;20057;-76
2022/09/12 03:30:48;;;;;;;121.60;37.25;;;12.90;99.90;;;;;;4956235;29;20146;-76
2022/09/12 03:33:22;;;;;;;124.40;37.60;;;12.90;99.90;;;;;;4939042;29;20048;-76
2022/09/12 03:35:48;;;;;;;124.90;36.45;;;12.90;99.90;;;;;;4956268;28;20043;-76
2022/09/12 03:38:14;;;;;;;110.25;36.80;;;12.80;99.90;;;;;;4957069;29;20051;-75
2022/09/12 03:40:41;;;;;;;117.90;38.17;;;12.80;99.90;;;;;;4956780;29;20087;-76
2022/09/12 03:43:08;;;;;;;117.10;36.67;;;12.80;99.90;;;;;;4955677;29;20372;-76
2022/09/12 03:45:35;;;;;;;116.30;36.75;;;12.80;99.90;;;;;;4938100;29;20046;-76
2022/09/12 03:48:01;;;;;;;116.75;36.65;;;12.80;99.90;;;;;;4938458;29;20051;-77
2022/09/12 03:50:27;;;;;;;117.27;38.43;;;12.70;99.90;;;;;;4906922;29;20058;-76
2022/09/12 03:52:53;;;;;;;122.47;40.05;;;12.70;99.90;;;;;;4923147;29;20055;-77
2022/09/12 03:55:19;;;;;;;114.20;38.10;;;12.70;99.90;;;;;;4955417;29;20082;-76
2022/09/12 03:57:45;;;;;;;121.27;38.40;;;12.70;99.90;;;;;;4938416;29;20062;-77
2022/09/12 04:00:11;;;;;;;125.20;38.47;;;12.70;99.90;;;;;;4938663;29;20290;-76
2022/09/12 04:02:37;;;;;;;120.78;38.63;;;12.60;99.90;;;;;;4937933;29;20051;-76
2022/09/12 04:05:03;;;;;;;126.07;38.97;;;12.60;99.90;;;;;;4922675;29;20062;-76
2022/09/12 04:07:29;;;;;;;115.67;36.97;;;12.60;99.90;;;;;;4955251;29;20043;-76
2022/09/12 04:09:55;;;;;;;123.93;40.10;;;12.60;99.90;;;;;;4938846;29;20309;-77
2022/09/12 04:12:21;;;;;;;125.05;37.33;;;12.60;99.90;;;;;;4955102;29;20576;-75
2022/09/12 04:14:47;;;;;;;122.90;40.97;;;12.60;99.90;;;;;;4938179;29;20070;-75
2022/09/12 04:17:13;;;;;;;130.85;42.70;;;12.60;99.90;;;;;;4955369;29;20047;-75
2022/09/12 04:19:39;;;;;;;132.37;40.63;;;12.50;99.90;;;;;;4922989;29;20421;-76
2022/09/12 04:22:05;;;;;;;131.75;41.13;;;12.60;99.90;;;;;;4938564;29;20050;-76
2022/09/12 04:24:31;;;;;;;135.10;41.33;;;12.50;99.90;;;;;;4938369;29;20050;-76
2022/09/12 04:26:56;;;;;;;128.55;41.05;;;12.50;99.90;;;;;;4938699;29;20058;-75
2022/09/12 04:29:22;;;;;;;131.40;40.92;;;12.50;99.90;;;;;;4922421;29;20055;-75
2022/09/12 04:31:48;;;;;;;140.48;43.50;;;12.50;99.90;;;;;;4938533;29;20134;-76
2022/09/12 04:34:14;;;;;;;140.93;42.90;;;12.50;99.90;;;;;;4955405;29;20077;-76
2022/09/12 04:36:40;;;;;;;147.93;44.03;;;12.50;99.90;;;;;;4922506;29;20122;-76
2022/09/12 04:39:07;;;;;;;147.23;45.13;;;12.60;99.90;;;;;;4937882;29;20134;-76
2022/09/12 04:41:37;;;;;;;137.60;42.80;;;12.60;99.90;;;;;;4939335;29;20172;-76
2022/09/12 04:44:06;;;;;;;143.85;43.42;;;12.60;99.90;;;;;;4955407;29;20279;-76
2022/09/12 04:46:35;;;;;;;132.77;41.88;;;12.50;99.90;;;;;;4939582;29;20086;-75
2022/09/12 04:49:01;;;;;;;140.95;42.45;;;12.60;99.90;;;;;;4955192;29;20086;-75
2022/09/12 04:51:30;;;;;;;142.33;42.10;;;12.60;99.90;;;;;;4954761;29;20083;-75
2022/09/12 04:53:59;;;;;;;137.18;42.05;;;12.60;99.90;;;;;;4954760;28;20090;-76
2022/09/12 04:56:26;;;;;;;150.02;42.47;;;12.60;99.90;;;;;;4954628;28;20126;-77
2022/09/12 04:58:51;;;;;;;;;;;12.60;99.90;;;;;;4954972;29;20159;-76
2022/09/12 05:01:20;;;;;;;142.07;41.30;;;12.70;99.90;;;;;;4954957;29;20029;-77
2022/09/12 05:03:49;;;;;;;133.48;40.92;;;12.70;99.90;;;;;;4922041;29;20404;-76
2022/09/12 05:06:17;;;;;;;140.20;40.88;;;12.70;99.90;;;;;;4922213;29;20051;-77
2022/09/12 05:08:43;;;;;;;140.70;40.30;;;12.80;99.90;;;;;;4954841;29;20047;-77
2022/09/12 05:11:19;;;;;;;140.40;42.53;;;12.80;99.90;;;;;;4937776;29;20051;-76
2022/09/12 05:13:45;;;;;;;140.43;42.83;;;12.90;99.90;;;;;;4956459;28;20090;-76
2022/09/12 05:16:14;;;;;;;141.48;43.60;;;12.90;99.90;;;;;;4958691;29;20134;-76
2022/09/12 05:18:40;;;;;;;141.18;42.80;;;12.90;99.90;;;;;;4941402;29;20057;-77
2022/09/12 05:21:08;;;;;;;143.93;41.93;;;13.00;99.90;;;;;;4959429;29;20054;-77
2022/09/12 05:23:35;;;;;;;130.27;40.60;;;13.10;99.90;;;;;;4960001;29;20050;-75
2022/09/12 05:26:02;;;;;;;130.95;40.15;;;13.10;99.90;;;;;;4942081;29;20508;-77
2022/09/12 05:28:33;;;;;;;136.00;42.00;;;13.20;99.90;;;;;;4960599;29;20086;-76
2022/09/12 05:31:21;;;;;;;134.90;41.40;;;13.20;99.90;;;;;;4961147;29;20114;-78
2022/09/12 05:33:49;;;;;;;116.97;38.30;;;13.30;99.90;;;;;;4962793;29;20197;-75
2022/09/12 05:36:21;;;;;;;128.98;41.17;;;13.40;99.90;;;;;;4964541;29;20074;-76
2022/09/12 05:38:47;;;;;;;128.65;41.72;;;13.40;99.90;;;;;;4967226;29;20044;-77
2022/09/12 05:41:28;;;;;;;133.00;41.35;;;13.30;99.90;;;;;;4969234;29;20062;-75
2022/09/12 05:44:02;;;;;;;125.38;40.38;;;13.40;99.90;;;;;;4964065;28;20055;-77
2022/09/12 05:46:34;;;;;;;127.85;41.97;;;13.50;99.90;;;;;;4965290;28;20039;-78
2022/09/12 05:49:05;;;;;;;123.82;38.75;;;13.50;99.90;;;;;;4967047;29;20051;-77
2022/09/12 05:51:34;;;;;;;123.50;40.30;;;13.60;99.90;;;;;;4946322;29;20058;-77
2022/09/12 05:54:02;;;;;;;126.78;40.80;;;13.70;99.90;;;;;;4942402;29;20051;-77
2022/09/12 05:56:33;;;;;;;124.63;41.50;;;13.70;99.90;;;;;;4925521;29;20059;-78
2022/09/12 05:59:06;;;;;;;132.38;41.38;;;13.80;99.90;;;;;;4958009;28;20507;-77
2022/09/12 06:01:33;;;;;;;123.45;40.50;;;13.80;99.90;;;;;;4958271;29;20077;-78
2022/09/12 06:03:59;;;;;;;;;;;13.80;99.90;;;;;;4958173;29;20051;-77
2022/09/12 06:06:26;;;;;;;125.25;38.17;;;13.90;99.90;;;;;;4940439;29;19930;-78
2022/09/12 06:08:55;;;;;;;112.43;37.75;;;13.90;99.90;;;;;;4940168;29;20109;-77
2022/09/12 06:11:24;;;;;;;123.28;39.03;;;14.00;99.90;;;;;;4957465;29;20058;-77
2022/09/12 06:13:51;;;;;;;125.53;38.72;;;14.00;99.90;;;;;;4957298;29;20055;-77
2022/09/12 06:16:19;;;;;;;127.47;39.97;;;14.00;99.90;;;;;;4924744;29;20456;-76
2022/09/12 06:18:53;;;;;;;127.25;39.40;;;14.10;99.90;;;;;;4956935;29;20051;-78
2022/09/12 06:21:20;;;;;;;127.20;39.03;;;14.10;99.90;;;;;;4940261;29;20051;-77
2022/09/12 06:23:46;;;;;;;;;;;14.20;99.90;;;;;;4957333;28;20086;-79
2022/09/12 06:26:13;;;;;;;129.27;39.88;;;14.20;99.90;;;;;;4939250;29;19969;-77
2022/09/12 06:28:40;;;;;;;131.88;39.13;;;14.20;99.90;;;;;;4940216;29;20126;-76
2022/09/12 06:31:11;;;;;;;120.78;38.08;;;14.30;99.90;;;;;;4940469;29;20090;-78
2022/09/12 06:33:39;;;;;;;124.15;39.25;;;14.30;99.90;;;;;;4957331;29;20122;-78
2022/09/12 06:36:06;;;;;;;127.68;38.97;;;14.40;99.90;;;;;;4957035;29;20118;-76
2022/09/12 06:38:32;;;;;;;122.60;40.03;;;14.40;99.90;;;;;;4939354;29;20083;-77
2022/09/12 06:40:59;;;;;;;130.55;40.08;;;14.50;99.90;;;;;;4956900;29;20094;-76
2022/09/12 06:43:27;;;;;;;127.18;40.10;;;14.50;99.90;;;;;;4956567;29;20043;-77
2022/09/12 06:45:52;;;;;;;122.53;38.95;;;14.50;99.90;;;;;;4939482;29;20055;-76
2022/09/12 06:48:18;;;;;;;120.60;39.28;;;14.60;99.90;;;;;;4956311;29;20051;-77
2022/09/12 06:51:01;;;;;;;126.45;38.35;;;14.60;99.90;;;;;;4939376;29;20051;-77
2022/09/12 06:53:29;;;;;;;115.50;39.10;;;14.70;99.90;;;;;;4957127;29;20346;-77
2022/09/12 06:55:59;;;;;;;121.15;40.15;;;14.70;99.90;;;;;;4956487;29;20040;-77
2022/09/12 06:58:26;;;;;;;122.18;38.83;;;14.80;99.90;;;;;;4939556;29;20053;-77
2022/09/12 07:00:52;;;;;;;116.78;38.88;;;14.80;99.90;;;;;;4961024;29;20149;-77
2022/09/12 07:03:18;;;;;;;115.35;38.53;;;14.90;99.90;;;;;;4957338;29;20051;-76
2022/09/12 07:05:46;;;;;;;123.40;39.60;;;14.90;99.90;;;;;;4957374;29;20134;-77
2022/09/12 07:08:12;;;;;;;118.93;39.17;;;15.00;99.90;;;;;;4957524;29;20054;-76
2022/09/12 07:10:38;;;;;;;109.00;37.20;;;15.00;99.90;;;;;;4941668;29;20051;-77
2022/09/12 07:13:03;;;;;;;111.20;37.50;;;15.10;99.90;;;;;;4956223;29;20059;-76
2022/09/12 07:15:30;;;;;;;122.63;39.83;;;15.10;99.90;;;;;;4940752;29;20054;-76
2022/09/12 07:17:55;;;;;;;113.03;37.00;;;15.20;99.90;;;;;;4940551;29;20071;-76
2022/09/12 07:20:22;;;;;;;106.03;37.40;;;15.20;99.90;;;;;;4958297;29;20302;-77
2022/09/12 07:22:51;;;;;;;120.07;37.88;;;15.30;99.90;;;;;;4957627;29;20503;-77
2022/09/12 07:25:17;;;;;;;117.10;38.35;;;15.30;99.90;;;;;;4926043;29;20134;-77
2022/09/12 07:27:42;;;;;;;103.45;35.47;;;15.40;99.90;;;;;;4924474;29;20082;-75
2022/09/12 07:30:08;;;;;;;110.55;35.63;;;15.50;99.90;;;;;;4941029;29;20098;-76
2022/09/12 07:32:34;;;;;;;107.38;37.13;;;15.50;99.90;;;;;;4957323;29;20475;-76
2022/09/12 07:34:59;;;;;;;105.43;36.53;;;15.60;99.90;;;;;;4957039;29;20051;-76
2022/09/12 07:37:32;;;;;;;106.15;35.58;;;15.80;99.90;;;;;;4940084;29;20376;-77
2022/09/12 07:39:58;;;;;;;114.25;36.47;;;15.80;99.90;;;;;;4924760;29;20051;-77
2022/09/12 07:42:24;;;;;;;116.22;36.75;;;15.90;99.90;;;;;;4939929;29;20054;-77
2022/09/12 07:44:51;;;;;;;104.10;35.88;;;16.00;99.90;;;;;;4940328;29;20051;-77
2022/09/12 07:47:17;;;;;;;109.07;36.45;;;16.10;99.90;;;;;;4957631;29;20529;-76
2022/09/12 07:49:43;;;;;;;113.20;36.75;;;16.10;99.90;;;;;;4939475;29;20103;-76
2022/09/12 07:52:08;;;;;;;109.50;36.88;;;16.20;99.90;;;;;;4957408;29;20126;-76
2022/09/12 07:54:34;;;;;;;106.85;36.95;;;16.30;99.90;;;;;;4940216;29;20047;-76
2022/09/12 07:57:00;;;;;;;106.70;36.42;;;16.40;99.90;;;;;;4956297;29;20094;-76
2022/09/12 07:59:26;;;;;;;109.20;37.42;;;16.40;99.90;;;;;;4940028;29;20055;-75
2022/09/12 08:01:53;;;;;;;110.05;36.97;;;16.50;99.90;;;;;;4957704;29;20432;-75
2022/09/12 08:04:19;;;;;;;106.50;37.97;;;16.60;99.90;;;;;;4956747;29;20097;-76
2022/09/12 08:06:45;;;;;;;;;;;16.60;99.90;;;;;;4941019;29;20047;-75
2022/09/12 08:09:11;;;;;;;115.70;38.40;;;16.80;99.90;;;;;;4938512;29;20287;-75
2022/09/12 08:11:37;;;;;;;116.35;37.97;;;16.80;99.90;;;;;;4939123;29;20091;-75
2022/09/12 08:14:04;;;;;;;117.40;39.75;;;16.90;99.90;;;;;;4956206;29;20212;-74
2022/09/12 08:16:31;;;;;;;107.57;37.00;;;17.00;99.90;;;;;;4956951;29;20130;-75
2022/09/12 08:18:59;;;;;;;111.85;37.53;;;17.00;99.90;;;;;;4939950;29;20110;-75
2022/09/12 08:21:27;;;;;;;114.93;38.90;;;17.10;99.90;;;;;;4939805;29;20082;-77
2022/09/12 08:23:56;;;;;;;109.15;38.08;;;17.10;99.90;;;;;;4956687;28;20166;-78
2022/09/12 08:26:22;;;;;;;118.43;40.78;;;17.10;99.90;;;;;;4939301;29;20052;-77
2022/09/12 08:28:49;;;;;;;127.55;40.15;;;17.10;99.90;;;;;;4956647;28;20058;-76
2022/09/12 08:31:16;;;;;;;;;;;17.10;99.90;;;;;;4938650;29;20055;-74
2022/09/12 08:33:42;;;;;;;110.45;37.70;;;17.20;99.90;;;;;;4938991;29;19922;-75
2022/09/12 08:36:20;;;;;;;121.68;38.17;;;17.30;99.90;;;;;;4956909;29;20098;-74
2022/09/12 08:38:48;;;;;;;123.90;41.05;;;17.50;99.90;;;;;;4956485;28;20133;-75
2022/09/12 08:41:16;;;;;;;122.07;40.33;;;17.60;99.90;;;;;;4939881;29;20055;-75
2022/09/12 08:44:03;;;;;;;119.85;41.30;;;17.80;99.90;;;;;;4960596;29;20126;-75
2022/09/12 08:46:56;;;;;;;122.07;41.55;;;17.90;99.90;;;;;;4942370;29;20059;-76
2022/09/12 08:49:38;;;;;;;126.75;42.90;;;18.10;99.90;;;;;;4934352;29;20070;-74
2022/09/12 08:52:11;;;;;;;116.22;40.88;;;18.20;99.90;;;;;;4938878;29;20051;-76
2022/09/12 08:54:39;;;;;;;124.70;42.47;;;18.30;99.90;;;;;;4958331;29;20121;-75
2022/09/12 08:57:08;;;;;;;115.72;41.50;;;18.40;99.90;;;;;;4955294;28;20515;-75
2022/09/12 08:59:38;;;;;;;112.00;38.20;;;18.60;99.90;;;;;;4958303;29;20051;-74
2022/09/12 09:02:15;;;;;;;111.10;39.38;;;18.70;99.90;;;;;;4940808;29;20094;-75
2022/09/12 09:04:50;;;;;;;116.65;40.70;;;18.80;99.90;;;;;;4923967;29;20077;-75
2022/09/12 09:07:36;;;;;;;109.13;38.95;;;19.00;99.90;;;;;;4957339;28;20090;-75
2022/09/12 09:10:20;;;;;;;113.07;40.73;;;19.20;99.90;;;;;;4923104;29;20495;-74
2022/09/12 09:13:06;;;;;;;104.93;37.63;;;19.00;99.90;;;;;;4954177;29;20062;-74
2022/09/12 09:16:14;;;;;;;106.88;39.03;;;19.20;99.90;;;;;;4922656;29;20059;-74
2022/09/12 09:18:43;;;;;;;99.65;36.50;;;19.40;99.90;;;;;;4906968;29;20138;-73
2022/09/12 09:21:22;;;;;;;102.75;36.58;;;19.30;99.90;;;;;;4938539;29;20385;-75
2022/09/12 09:24:06;;;;;;;98.00;35.95;;;19.30;99.90;;;;;;4956010;29;20047;-74
2022/09/12 09:26:49;;;;;;;95.03;35.55;;;19.50;99.90;;;;;;4957884;29;20134;-75
2022/09/12 09:29:19;;;;;;;96.20;36.72;;;19.50;99.90;;;;;;4938862;29;20051;-73
2022/09/12 09:31:52;;;;;;;98.13;36.13;;;19.50;99.90;;;;;;4955935;29;20075;-75
2022/09/12 09:34:21;;;;;;;100.30;33.80;;;19.60;99.90;;;;;;4955745;29;20046;-78
2022/09/12 09:37:12;;;;;;;99.72;35.60;;;19.80;99.90;;;;;;4956019;28;20391;-74
2022/09/12 09:40:00;;;;;;;100.53;36.33;;;19.80;99.90;;;;;;4937319;29;20063;-76
2022/09/12 09:42:36;;;;;;;93.20;35.22;;;19.80;99.90;;;;;;4958521;29;20071;-75
2022/09/12 09:45:11;;;;;;;96.90;35.08;;;19.90;99.90;;;;;;4961426;29;20101;-77
2022/09/12 09:47:36;;;;;;;90.03;34.17;;;20.00;99.90;;;;;;4943204;29;20115;-76
2022/09/12 09:50:03;;;;;;;88.43;34.57;;;20.00;99.90;;;;;;4940672;29;20078;-78
2022/09/12 09:52:31;;;;;;;90.60;34.15;;;20.10;99.90;;;;;;4954431;29;20055;-75
2022/09/12 09:54:59;;;;;;;95.32;34.75;;;20.20;99.90;;;;;;4937219;29;20070;-75
2022/09/12 09:57:34;;;;;;;96.57;34.72;;;20.30;99.90;;;;;;4954155;29;20054;-76
2022/09/12 10:00:38;;;;;;;94.95;35.95;;;20.50;99.90;;;;;;4938014;29;20054;-77
2022/09/12 10:03:13;;;;;;;98.82;35.72;;;20.50;99.90;;;;;;4941577;29;20043;-78
2022/09/12 10:05:57;;;;;;;98.55;36.70;;;20.50;99.90;;;;;;4940845;29;20090;-78
2022/09/12 10:08:25;;;;;;;100.63;37.83;;;20.40;99.90;;;;;;4957565;29;20066;-76
2022/09/12 10:11:00;;;;;;;93.53;35.88;;;20.20;99.90;;;;;;4957448;29;20110;-77
2022/09/12 10:13:52;;;;;;;95.38;38.05;;;20.20;99.90;;;;;;4923128;29;20067;-76
2022/09/12 10:16:22;;;;;;;92.80;35.63;;;20.20;99.90;;;;;;4937856;29;20080;-75
2022/09/12 10:18:51;;;;;;;88.90;33.95;;;20.20;99.90;;;;;;4939676;29;20407;-79
2022/09/12 10:21:38;;;;;;;81.63;33.70;;;20.40;99.90;;;;;;4922140;29;20067;-74
2022/09/12 10:24:04;;;;;;;82.38;33.05;;;20.40;99.90;;;;;;4938770;29;20198;-77
2022/09/12 10:26:37;;;;;;;83.93;32.93;;;20.50;99.90;;;;;;4937630;29;20135;-77
2022/09/12 10:29:21;;;;;;;91.15;34.28;;;20.60;99.90;;;;;;4921988;29;20047;-77
2022/09/12 10:31:54;;;;;;;79.50;31.08;;;20.80;99.90;;;;;;4937160;29;20060;-75
2022/09/12 10:34:37;;;;;;;78.30;31.70;;;20.90;99.90;;;;;;4939557;29;20062;-78
2022/09/12 10:37:23;;;;;;;88.85;33.22;;;21.00;99.90;;;;;;4938424;29;20040;-78
2022/09/12 10:39:55;;;;;;;80.43;32.55;;;21.00;99.90;;;;;;4937692;29;20059;-76
2022/09/12 10:42:46;;;;;;;78.53;29.52;;;20.90;99.90;;;;;;4938537;29;20154;-75
2022/09/12 10:45:21;;;;;;;69.78;29.02;;;21.00;99.90;;;;;;4938443;29;20052;-76
2022/09/12 10:47:48;;;;;;;79.10;31.88;;;21.10;99.90;;;;;;4922941;29;20068;-76
2022/09/12 10:50:25;;;;;;;83.70;33.53;;;21.10;99.90;;;;;;4937019;29;20385;-76
2022/09/12 10:52:53;;;;;;;76.78;32.00;;;21.20;99.90;;;;;;4937819;29;20059;-77
2022/09/12 10:55:31;;;;;;;75.95;32.10;;;21.20;99.90;;;;;;4938142;29;20051;-75
2022/09/12 10:58:29;;;;;;;78.95;30.30;;;21.20;99.90;;;;;;4937720;29;20043;-73
2022/09/12 11:01:14;;;;;;;77.85;31.17;;;21.40;99.90;;;;;;4940176;29;20397;-77
2022/09/12 11:03:47;;;;;;;69.88;29.48;;;21.40;99.90;;;;;;4942290;29;20062;-74
2022/09/12 11:06:21;;;;;;;75.35;30.58;;;21.40;99.90;;;;;;4945946;29;20055;-76
2022/09/12 11:09:05;;;;;;;75.40;30.30;;;21.50;99.90;;;;;;4948914;29;20055;-78
2022/09/12 11:11:52;;;;;;;66.32;26.25;;;21.60;99.90;;;;;;4948431;29;20047;-75
2022/09/12 11:14:45;;;;;;;69.28;27.75;;;21.60;99.90;;;;;;4964012;29;20146;-76
2022/09/12 11:17:33;;;;;;;65.72;27.60;;;21.80;99.90;;;;;;4971489;29;20051;-77
2022/09/12 11:20:09;;;;;;;64.97;25.45;;;;;;;;;;4969958;29;20057;-78
2022/09/12 11:22:37;;;;;;;68.72;26.90;;;21.70;99.90;;;;;;4967266;29;20404;-75
2022/09/12 11:25:18;;;;;;;67.22;26.20;;;21.80;99.90;;;;;;4965616;29;20061;-77
2022/09/12 11:28:02;;;;;;;62.33;25.42;;;21.90;99.90;;;;;;4967334;29;20051;-76
2022/09/12 11:30:38;;;;;;;65.53;27.00;;;22.10;99.90;;;;;;4966216;29;20303;-75
2022/09/12 11:33:29;;;;;;;64.68;25.35;;;;;;;;;;4960820;29;20444;-77
2022/09/12 11:35:58;;;;;;;57.40;23.60;;;22.40;99.90;;;;;;4960840;29;20051;-77
2022/09/12 11:38:33;;;;;;;60.97;25.13;;;22.40;99.90;;;;;;4969320;29;20031;-78
2022/09/12 11:41:11;;;;;;;55.05;23.30;;;;;;;;;;4954182;29;20055;-76
2022/09/12 11:43:45;;;;;;;49.05;21.75;;;22.60;99.90;;;;;;4960956;29;20405;-76
2022/09/12 11:46:17;;;;;;;45.65;19.75;;;22.60;99.90;;;;;;4940652;29;20369;-76
2022/09/12 11:48:51;;;;;;;47.65;20.02;;;22.70;99.90;;;;;;4940947;29;20051;-77
2022/09/12 11:51:30;;;;;;;55.00;23.63;;;22.60;99.90;;;;;;4939986;29;20050;-75
2022/09/12 11:54:25;;;;;;;50.08;21.02;;;22.60;99.90;;;;;;4940321;29;20077;-75
2022/09/12 11:56:58;;;;;;;44.38;19.55;;;22.70;99.90;;;;;;4950712;29;20055;-75
2022/09/12 11:59:42;;;;;;;50.90;20.33;;;22.70;99.90;;;;;;4939584;29;20046;-75
2022/09/12 12:02:18;;;;;;;42.97;18.10;;;22.70;99.90;;;;;;4939262;29;20055;-76
2022/09/12 12:05:19;;;;;;;34.53;15.73;;;22.80;99.90;;;;;;4955962;29;20047;-75
2022/09/12 12:07:57;;;;;;;29.65;12.82;;;22.80;99.90;;;;;;4955591;29;20100;-75
2022/09/12 12:10:31;;;;;;;31.67;12.88;;;22.90;99.90;;;;;;4938371;29;20055;-75
2022/09/12 12:12:59;;;;;;;26.80;12.27;;;22.90;99.90;;;;;;4955867;29;20059;-75
2022/09/12 12:15:27;;;;;;;28.20;12.48;;;22.90;99.90;;;;;;4954306;28;20494;-77
2022/09/12 12:18:17;;;;;;;21.80;10.85;;;22.90;99.90;;;;;;4938705;29;20150;-74
2022/09/12 12:20:43;;;;;;;24.65;11.52;;;22.90;99.90;;;;;;4922902;29;20431;-73
2022/09/12 12:24:04;;;;;;;28.05;12.75;;;22.90;99.90;;;;;;4937575;29;20125;-78
2022/09/12 12:26:38;;;;;;;28.33;12.45;;;23.00;99.90;;;;;;4880706;29;20056;-76
2022/09/12 12:29:27;;;;;;;26.92;12.40;;;23.00;99.90;;;;;;4936707;29;20195;-76
2022/09/12 12:32:00;;;;;;;29.02;12.82;;;22.90;99.90;;;;;;4947313;28;20058;-76
2022/09/12 12:34:43;;;;;;;30.63;13.15;;;22.90;99.90;;;;;;4938138;29;20106;-76
2022/09/12 12:37:18;;;;;;;20.60;10.32;;;23.00;99.90;;;;;;4938396;29;20086;-73
2022/09/12 12:39:46;;;;;;;17.63;8.68;;;23.00;99.90;;;;;;4938397;29;20055;-76
2022/09/12 12:42:31;;;;;;;26.50;10.32;;;23.00;99.90;;;;;;4955076;29;20105;-77
2022/09/12 12:44:57;;;;;;;22.27;9.77;;;23.00;99.90;;;;;;4937811;29;20050;-77
2022/09/12 12:47:26;;;;;;;;;;;23.10;99.90;;;;;;4955376;29;20479;-74
2022/09/12 12:50:15;;;;;;;25.08;11.20;;;23.10;99.90;;;;;;4937468;29;19922;-75
2022/09/12 12:52:53;;;;;;;30.15;12.25;;;23.20;99.90;;;;;;4946585;29;20070;-74
2022/09/12 12:55:32;;;;;;;26.88;12.50;;;23.20;99.90;;;;;;4938239;29;20119;-80